Time;durP1;ratioP1;P1;durP2;ratioP2;P2;SDS_P1;SDS_P2;PMS_P1;PMS_P2;Temp;Humidity;BMP_temperature;BMP_pressure;BME280_temperature;BME280_humidity;BME280_pressure;Samples;Min_cycle;Max_cycle;Signal;HPM_P1;HPM_P2
2023/07/18 00:00:14;;;;;;;4.10;1.50;;;;;;;;;;5045749;28;20041;-62
2023/07/18 00:02:42;;;;;;;3.70;1.20;;;;;;;;;;5039612;28;20092;-63
2023/07/18 00:05:12;;;;;;;5.00;1.65;;;;;;;;;;5051403;28;20044;-63
2023/07/18 00:07:42;;;;;;;4.03;1.30;;;;;;;;;;5065398;28;20033;-62
2023/07/18 00:10:09;;;;;;;4.35;1.60;;;;;;;;;;5048802;28;20064;-61
2023/07/18 00:12:36;;;;;;;5.47;1.42;;;;;;;;;;5069008;28;20059;-63
2023/07/18 00:15:04;;;;;;;4.50;1.50;;;;;;;;;;5047951;28;20032;-63
2023/07/18 00:17:34;;;;;;;3.85;1.27;;;;;;;;;;5044201;28;20047;-63
2023/07/18 00:20:01;;;;;;;5.15;1.50;;;;;;;;;;5033567;28;20155;-61
2023/07/18 00:22:28;;;;;;;3.90;1.30;;;;;;;;;;5036444;28;20048;-63
2023/07/18 00:24:55;;;;;;;4.25;1.17;;;;;;;;;;5061889;28;20040;-62
2023/07/18 00:27:21;;;;;;;4.40;1.10;;;;;;;;;;5064039;28;20037;-65
2023/07/18 00:29:48;;;;;;;3.20;1.20;;;;;;;;;;5046283;28;20033;-64
2023/07/18 00:32:15;;;;;;;3.70;1.50;;;;;;;;;;5061107;28;20127;-63
2023/07/18 00:34:44;;;;;;;3.70;1.30;;;;;;;;;;5074717;28;20051;-65
2023/07/18 00:37:11;;;;;;;3.53;1.05;;;;;;;;;;5063161;28;20052;-64
2023/07/18 00:39:38;;;;;;;2.90;1.08;;;;;;;;;;5069090;28;20043;-63
2023/07/18 00:42:05;;;;;;;3.40;1.08;;;;;;;;;;5061890;28;20147;-63
2023/07/18 00:44:32;;;;;;;2.88;1.00;;;;;;;;;;5066426;28;20044;-62
2023/07/18 00:46:58;;;;;;;4.65;1.30;;;;;;;;;;5075793;28;20059;-63
2023/07/18 00:49:26;;;;;;;4.05;1.50;;;;;;;;;;5041312;28;20040;-62
2023/07/18 00:51:52;;;;;;;5.93;1.23;;;;;;;;;;5068046;28;20055;-64
2023/07/18 00:54:21;;;;;;;3.25;1.15;;;;;;;;;;5047643;28;20630;-62
2023/07/18 00:57:08;;;;;;;4.95;1.35;;;;;;;;;;5029359;28;20504;-60
2023/07/18 00:59:35;;;;;;;4.38;1.42;;;;;;;;;;4998241;28;20041;-60
2023/07/18 01:02:02;;;;;;;3.90;1.30;;;;;;;;;;5028307;28;20049;-59
2023/07/18 01:04:32;;;;;;;3.42;1.20;;;;;;;;;;5030323;28;20102;-61
2023/07/18 01:07:01;;;;;;;3.72;1.20;;;;;;;;;;5022138;28;21281;-61
2023/07/18 01:09:48;;;;;;;4.53;1.33;;;;;;;;;;4980399;28;20159;-59
2023/07/18 01:12:15;;;;;;;4.15;1.38;;;;;;;;;;4967208;28;20131;-61
2023/07/18 01:14:41;;;;;;;3.92;1.30;;;;;;;;;;4965495;28;20518;-60
2023/07/18 01:17:09;;;;;;;4.63;1.42;;;;;;;;;;4982159;28;20046;-58
2023/07/18 01:19:36;;;;;;;4.03;1.40;;;;;;;;;;4982642;28;20054;-59
2023/07/18 01:22:02;;;;;;;3.42;1.38;;;;;;;;;;4983541;28;20369;-59
2023/07/18 01:24:29;;;;;;;4.60;1.55;;;;;;;;;;4981273;28;20140;-60
2023/07/18 01:26:56;;;;;;;4.13;1.23;;;;;;;;;;4989808;28;20052;-58
2023/07/18 01:29:23;;;;;;;3.10;1.27;;;;;;;;;;4989312;28;20065;-60
2023/07/18 01:31:51;;;;;;;4.10;1.20;;;;;;;;;;4988162;28;20138;-60
2023/07/18 01:34:17;;;;;;;2.95;1.20;;;;;;;;;;4999637;28;20056;-61
2023/07/18 01:36:44;;;;;;;3.90;1.33;;;;;;;;;;5014450;28;20045;-62
2023/07/18 01:39:11;;;;;;;5.82;1.40;;;;;;;;;;5015827;28;20041;-67
2023/07/18 01:41:37;;;;;;;2.67;1.00;;;;;;;;;;5000910;28;20051;-60
2023/07/18 01:44:04;;;;;;;4.22;1.60;;;;;;;;;;5015308;28;20569;-61
2023/07/18 01:46:31;;;;;;;3.53;1.10;;;;;;;;;;5020838;28;20055;-63
2023/07/18 01:48:57;;;;;;;3.63;1.33;;;;;;;;;;5052983;28;20383;-64
2023/07/18 01:51:24;;;;;;;3.00;1.10;;;;;;;;;;5039544;28;20037;-64
2023/07/18 01:53:51;;;;;;;4.93;1.50;;;;;;;;;;5056000;28;20051;-60
2023/07/18 01:56:17;;;;;;;3.42;1.20;;;;;;;;;;5056283;28;20044;-63
2023/07/18 01:58:45;;;;;;;4.07;1.17;;;;;;;;;;5054056;28;20044;-60
2023/07/18 02:01:12;;;;;;;4.60;1.42;;;;;;;;;;5055805;28;20101;-66
2023/07/18 02:03:38;;;;;;;4.05;1.60;;;;;;;;;;5055205;28;20203;-59
2023/07/18 02:06:05;;;;;;;3.70;1.40;;;;;;;;;;5056227;28;20033;-60
2023/07/18 02:08:31;;;;;;;3.38;1.30;;;;;;;;;;5056123;28;20574;-61
2023/07/18 02:10:58;;;;;;;3.20;1.20;;;;;;;;;;5057912;28;20037;-62
2023/07/18 02:13:25;;;;;;;3.85;1.50;;;;;;;;;;5059337;28;20486;-61
2023/07/18 02:15:51;;;;;;;3.47;1.40;;;;;;;;;;5056923;28;20043;-62
2023/07/18 02:18:18;;;;;;;3.58;1.20;;;;;;;;;;5055148;28;20116;-61
2023/07/18 02:20:45;;;;;;;4.38;1.30;;;;;;;;;;5033199;28;20318;-61
2023/07/18 02:23:12;;;;;;;3.95;1.40;;;;;;;;;;5057943;28;20037;-63
2023/07/18 02:25:39;;;;;;;4.18;1.38;;;;;;;;;;5032207;28;20043;-60
2023/07/18 02:28:07;;;;;;;4.28;1.40;;;;;;;;;;5040871;28;20029;-61
2023/07/18 02:30:35;;;;;;;3.42;1.40;;;;;;;;;;5038835;28;20518;-62
2023/07/18 02:33:04;;;;;;;3.58;1.60;;;;;;;;;;5053487;28;20086;-64
2023/07/18 02:35:32;;;;;;;5.10;1.38;;;;;;;;;;5055328;28;20036;-65
2023/07/18 02:37:59;;;;;;;3.25;1.48;;;;;;;;;;5050616;28;20049;-62
2023/07/18 02:40:25;;;;;;;3.88;1.50;;;;;;;;;;5051630;28;20072;-64
2023/07/18 02:42:52;;;;;;;5.20;1.60;;;;;;;;;;5051210;28;20040;-62
2023/07/18 02:45:19;;;;;;;4.10;1.35;;;;;;;;;;5042262;28;20048;-63
2023/07/18 02:47:45;;;;;;;3.67;1.48;;;;;;;;;;5030601;28;20028;-63
2023/07/18 02:50:12;;;;;;;3.60;1.35;;;;;;;;;;5029224;28;20049;-61
2023/07/18 02:52:39;;;;;;;4.40;1.40;;;;;;;;;;5028382;28;20051;-63
2023/07/18 02:55:06;;;;;;;5.85;1.65;;;;;;;;;;5051482;28;20049;-60
2023/07/18 02:57:33;;;;;;;4.00;1.40;;;;;;;;;;5050858;28;20047;-60
2023/07/18 02:59:59;;;;;;;3.60;1.20;;;;;;;;;;5030067;28;20410;-61
2023/07/18 03:02:28;;;;;;;4.50;1.33;;;;;;;;;;5028595;28;20135;-62
2023/07/18 03:04:55;;;;;;;4.05;1.52;;;;;;;;;;5050557;28;20044;-61
2023/07/18 03:07:22;;;;;;;4.32;1.42;;;;;;;;;;5037119;28;20402;-59
2023/07/18 03:09:48;;;;;;;3.85;1.48;;;;;;;;;;5047921;28;20199;-62
2023/07/18 03:12:15;;;;;;;4.63;1.30;;;;;;;;;;5031124;28;20044;-62
2023/07/18 03:14:41;;;;;;;6.35;1.13;;;;;;;;;;5051221;28;20420;-60
2023/07/18 03:17:08;;;;;;;3.50;1.20;;;;;;;;;;5051467;28;20205;-60
2023/07/18 03:19:35;;;;;;;6.47;1.30;;;;;;;;;;5050903;28;20039;-64
2023/07/18 03:22:04;;;;;;;3.10;1.10;;;;;;;;;;5050099;28;20055;-60
2023/07/18 03:24:31;;;;;;;4.88;1.42;;;;;;;;;;5049672;28;20672;-63
2023/07/18 03:26:57;;;;;;;2.90;1.10;;;;;;;;;;5050338;28;20032;-62
2023/07/18 03:29:24;;;;;;;3.10;1.20;;;;;;;;;;5049239;28;20057;-61
2023/07/18 03:31:51;;;;;;;4.05;1.50;;;;;;;;;;5031328;28;20046;-60
2023/07/18 03:34:17;;;;;;;4.43;1.50;;;;;;;;;;5050197;28;20108;-62
2023/07/18 03:36:44;;;;;;;3.72;1.40;;;;;;;;;;5033921;28;20041;-63
2023/07/18 03:39:13;;;;;;;3.92;1.52;;;;;;;;;;5048419;28;20102;-60
2023/07/18 03:41:40;;;;;;;3.65;1.40;;;;;;;;;;5048981;28;20519;-61
2023/07/18 03:44:06;;;;;;;4.28;1.50;;;;;;;;;;5037421;28;20028;-62
2023/07/18 03:46:34;;;;;;;4.50;1.55;;;;;;;;;;5047478;28;20148;-60
2023/07/18 03:49:01;;;;;;;3.53;1.50;;;;;;;;;;5025661;28;20036;-61
2023/07/18 03:51:29;;;;;;;3.85;1.63;;;;;;;;;;5047344;28;20045;-62
2023/07/18 03:53:56;;;;;;;3.63;1.40;;;;;;;;;;5051783;28;20799;-61
2023/07/18 03:56:22;;;;;;;3.53;1.60;;;;;;;;;;5051020;28;20505;-60
2023/07/18 03:58:51;;;;;;;3.60;1.55;;;;;;;;;;5028741;28;20045;-62
2023/07/18 04:01:18;;;;;;;5.43;1.55;;;;;;;;;;5050299;28;20091;-61
2023/07/18 04:03:44;;;;;;;3.55;1.45;;;;;;;;;;5049420;28;20068;-59
2023/07/18 04:06:11;;;;;;;4.50;1.50;;;;;;;;;;5051060;28;20048;-61
2023/07/18 04:08:38;;;;;;;4.13;1.42;;;;;;;;;;5058489;28;20037;-60
2023/07/18 04:11:04;;;;;;;4.35;1.67;;;;;;;;;;5067911;28;20838;-61
2023/07/18 04:13:31;;;;;;;4.57;1.50;;;;;;;;;;5067058;28;20119;-62
2023/07/18 04:16:17;;;;;;;3.40;1.42;;;;;;;;;;5027739;28;20132;-61
2023/07/18 04:18:44;;;;;;;3.72;1.33;;;;;;;;;;5026722;28;20119;-64
2023/07/18 04:21:10;;;;;;;3.95;1.55;;;;;;;;;;5024716;28;20049;-60
2023/07/18 04:23:37;;;;;;;5.63;1.70;;;;;;;;;;5024683;28;20073;-62
2023/07/18 04:26:04;;;;;;;3.95;1.70;;;;;;;;;;5024629;28;20116;-61
2023/07/18 04:28:36;;;;;;;5.20;2.00;;;;;;;;;;5024562;28;20037;-62
2023/07/18 04:31:04;;;;;;;3.90;1.60;;;;;;;;;;5024312;28;20120;-61
2023/07/18 04:33:34;;;;;;;5.93;1.85;;;;;;;;;;5023720;28;20079;-60
2023/07/18 04:36:00;;;;;;;4.55;1.80;;;;;;;;;;5024133;28;20581;-61
2023/07/18 04:38:27;;;;;;;4.97;2.15;;;;;;;;;;5022801;28;20552;-60
2023/07/18 04:40:54;;;;;;;4.18;1.92;;;;;;;;;;5021337;28;20252;-61
2023/07/18 04:43:20;;;;;;;4.55;1.77;;;;;;;;;;5023351;28;20060;-61
2023/07/18 04:45:48;;;;;;;4.55;1.88;;;;;;;;;;5021959;28;20187;-64
2023/07/18 04:48:15;;;;;;;4.57;1.80;;;;;;;;;;5024415;28;20130;-59
2023/07/18 04:50:42;;;;;;;4.97;1.80;;;;;;;;;;5022587;28;20043;-58
2023/07/18 04:53:08;;;;;;;5.68;2.00;;;;;;;;;;5035350;28;20150;-60
2023/07/18 04:55:36;;;;;;;4.05;1.90;;;;;;;;;;5062915;28;20042;-65
2023/07/18 04:58:06;;;;;;;4.28;1.90;;;;;;;;;;5061443;28;20051;-58
2023/07/18 05:00:33;;;;;;;4.47;1.90;;;;;;;;;;5057631;28;20045;-60
2023/07/18 05:03:00;;;;;;;5.35;2.30;;;;;;;;;;5061082;28;20056;-61
2023/07/18 05:05:27;;;;;;;4.20;2.13;;;;;;;;;;5042982;28;20044;-61
2023/07/18 05:08:01;;;;;;;4.13;1.95;;;;;;;;;;5061226;28;20196;-60
2023/07/18 05:10:28;;;;;;;4.55;2.20;;;;;;;;;;5038138;28;20166;-60
2023/07/18 05:12:55;;;;;;;5.45;2.03;;;;;;;;;;5061500;28;20048;-62
2023/07/18 05:15:22;;;;;;;5.57;2.58;;;;;;;;;;5039948;28;20048;-59
2023/07/18 05:17:49;;;;;;;4.68;2.60;;;;;;;;;;5060672;28;20181;-60
2023/07/18 05:20:16;;;;;;;4.80;2.10;;;;;;;;;;5063377;28;20041;-62
2023/07/18 05:22:44;;;;;;;5.75;2.40;;;;;;;;;;5063687;28;20502;-62
2023/07/18 05:25:12;;;;;;;4.57;2.05;;;;;;;;;;5066742;28;20053;-59
2023/07/18 05:27:39;;;;;;;4.40;2.00;;;;;;;;;;5062389;28;20535;-61
2023/07/18 05:30:07;;;;;;;5.47;1.95;;;;;;;;;;5062661;28;20033;-60
2023/07/18 05:32:33;;;;;;;4.65;2.10;;;;;;;;;;5063272;28;20443;-61
2023/07/18 05:35:00;;;;;;;4.30;1.90;;;;;;;;;;5047664;28;20107;-60
2023/07/18 05:37:28;;;;;;;5.70;2.20;;;;;;;;;;5062848;28;20041;-60
2023/07/18 05:39:55;;;;;;;4.05;1.83;;;;;;;;;;5062108;28;20045;-60
2023/07/18 05:42:22;;;;;;;4.88;1.73;;;;;;;;;;5035750;28;20040;-66
2023/07/18 05:44:49;;;;;;;4.28;1.45;;;;;;;;;;5061304;28;20515;-60
2023/07/18 05:47:16;;;;;;;4.88;1.83;;;;;;;;;;5063363;28;20109;-61
2023/07/18 05:49:43;;;;;;;4.05;1.50;;;;;;;;;;5059029;28;20044;-59
2023/07/18 05:52:10;;;;;;;5.30;1.77;;;;;;;;;;5060920;28;20428;-60
2023/07/18 05:54:36;;;;;;;3.75;1.52;;;;;;;;;;5061289;28;20119;-61
2023/07/18 05:57:03;;;;;;;4.35;1.60;;;;;;;;;;5063875;28;20186;-60
2023/07/18 05:59:30;;;;;;;4.30;1.63;;;;;;;;;;5059136;28;20087;-61
2023/07/18 06:01:59;;;;;;;3.35;1.33;;;;;;;;;;5062927;28;20135;-62
2023/07/18 06:04:26;;;;;;;5.50;1.80;;;;;;;;;;5034288;28;20497;-60
2023/07/18 06:06:54;;;;;;;6.28;1.75;;;;;;;;;;5063612;28;20040;-62
2023/07/18 06:09:21;;;;;;;4.70;1.60;;;;;;;;;;5063913;28;20036;-63
2023/07/18 06:11:48;;;;;;;5.18;1.52;;;;;;;;;;5057327;28;21767;-62
2023/07/18 06:14:15;;;;;;;3.80;1.58;;;;;;;;;;5049824;28;20036;-60
2023/07/18 06:16:41;;;;;;;3.58;1.33;;;;;;;;;;5051744;28;20056;-60
2023/07/18 06:19:08;;;;;;;3.35;1.50;;;;;;;;;;5069049;28;20389;-60
2023/07/18 06:21:35;;;;;;;3.83;1.35;;;;;;;;;;5052418;28;20040;-61
2023/07/18 06:24:01;;;;;;;3.55;1.50;;;;;;;;;;5068589;28;20051;-60
2023/07/18 06:26:28;;;;;;;4.03;1.67;;;;;;;;;;5066995;28;20041;-59
2023/07/18 06:28:55;;;;;;;4.43;1.50;;;;;;;;;;5058931;28;20098;-59
2023/07/18 06:31:22;;;;;;;4.07;1.52;;;;;;;;;;5067233;28;20049;-60
2023/07/18 06:33:49;;;;;;;3.80;1.50;;;;;;;;;;5067636;28;20036;-61
2023/07/18 06:36:16;;;;;;;3.50;1.40;;;;;;;;;;5069158;28;20040;-62
2023/07/18 06:38:43;;;;;;;4.55;1.85;;;;;;;;;;5065496;28;25370;-63
2023/07/18 06:41:10;;;;;;;3.67;1.58;;;;;;;;;;5052753;28;20065;-62
2023/07/18 06:43:37;;;;;;;5.18;1.92;;;;;;;;;;5063842;28;20036;-60
2023/07/18 06:46:03;;;;;;;4.85;1.70;;;;;;;;;;5062986;28;20122;-64
2023/07/18 06:48:30;;;;;;;5.05;1.30;;;;;;;;;;5065193;28;20592;-62
2023/07/18 06:50:59;;;;;;;4.80;1.70;;;;;;;;;;5066415;28;20044;-60
2023/07/18 06:53:26;;;;;;;3.80;1.70;;;;;;;;;;5065524;28;20039;-61
2023/07/18 06:55:54;;;;;;;3.85;1.80;;;;;;;;;;5038514;28;20036;-61
2023/07/18 06:58:21;;;;;;;3.88;1.67;;;;;;;;;;5067541;28;20040;-60
2023/07/18 07:00:49;;;;;;;5.10;1.70;;;;;;;;;;5062904;28;20161;-61
2023/07/18 07:03:15;;;;;;;4.60;2.17;;;;;;;;;;5058614;28;20044;-59
2023/07/18 07:05:43;;;;;;;4.93;1.90;;;;;;;;;;5044204;28;20132;-59
2023/07/18 07:08:12;;;;;;;4.43;1.70;;;;;;;;;;5064703;28;20428;-60
2023/07/18 07:10:41;;;;;;;3.83;1.83;;;;;;;;;;5062800;28;20033;-60
2023/07/18 07:13:09;;;;;;;5.13;2.25;;;;;;;;;;5062859;28;20033;-60
2023/07/18 07:15:36;;;;;;;6.07;2.00;;;;;;;;;;5062910;28;20053;-60
2023/07/18 07:18:06;;;;;;;6.63;2.35;;;;;;;;;;5064603;28;20037;-60
2023/07/18 07:20:33;;;;;;;6.28;2.30;;;;;;;;;;5063565;28;20043;-62
2023/07/18 07:23:00;;;;;;;5.22;1.95;;;;;;;;;;5064632;28;20032;-62
2023/07/18 07:25:27;;;;;;;4.40;1.77;;;;;;;;;;5049418;28;20048;-62
2023/07/18 07:27:54;;;;;;;4.15;1.83;;;;;;;;;;5048669;28;20547;-61
2023/07/18 07:30:21;;;;;;;3.85;1.80;;;;;;;;;;5065218;28;20408;-60
2023/07/18 07:32:52;;;;;;;3.67;1.67;;;;;;;;;;5063270;28;20070;-59
2023/07/18 07:35:19;;;;;;;5.82;2.35;;;;;;;;;;5065517;28;20045;-60
2023/07/18 07:37:47;;;;;;;5.82;2.10;;;;;;;;;;5064081;28;20041;-60
2023/07/18 07:40:14;;;;;;;4.10;1.67;;;;;;;;;;5063836;28;20400;-62
2023/07/18 07:42:41;;;;;;;4.60;1.90;;;;;;;;;;5064210;28;20459;-60
2023/07/18 07:45:28;;;;;;;5.45;1.90;;;;;;;;;;5001493;28;20077;-62
2023/07/18 07:47:55;;;;;;;4.78;1.77;;;;;;;;;;5001337;28;20034;-60
2023/07/18 07:50:22;;;;;;;3.92;1.65;;;;;;;;;;5000008;28;20490;-60
2023/07/18 07:52:49;;;;;;;5.43;2.20;;;;;;;;;;5001098;28;20060;-61
2023/07/18 07:55:16;;;;;;;6.25;1.73;;;;;;;;;;5001559;28;20137;-63
2023/07/18 07:57:42;;;;;;;6.35;2.53;;;;;;;;;;4980869;28;20042;-60
2023/07/18 08:00:09;;;;;;;4.80;1.90;;;;;;;;;;5000954;28;20084;-63
2023/07/18 08:02:36;;;;;;;5.55;2.20;;;;;;;;;;4999071;28;20337;-62
2023/07/18 08:05:03;;;;;;;4.85;2.15;;;;;;;;;;4997454;28;20542;-61
2023/07/18 08:07:29;;;;;;;6.00;2.40;;;;;;;;;;5001493;28;20048;-61
2023/07/18 08:09:56;;;;;;;5.65;2.45;;;;;;;;;;5001320;28;20081;-60
2023/07/18 08:12:23;;;;;;;6.35;2.42;;;;;;;;;;5005215;28;20057;-60
2023/07/18 08:14:49;;;;;;;5.45;1.90;;;;;;;;;;5005018;28;20617;-63
2023/07/18 08:17:17;;;;;;;6.70;2.00;;;;;;;;;;5060427;28;20052;-63
2023/07/18 08:19:44;;;;;;;5.57;2.35;;;;;;;;;;5068775;28;20051;-60
2023/07/18 08:22:10;;;;;;;5.95;2.00;;;;;;;;;;5067160;28;20676;-59
2023/07/18 08:24:37;;;;;;;6.30;2.67;;;;;;;;;;5067344;28;20749;-60
2023/07/18 08:27:04;;;;;;;4.93;2.35;;;;;;;;;;5073490;28;20040;-59
2023/07/18 08:29:31;;;;;;;4.32;2.10;;;;;;;;;;5069152;28;20041;-59
2023/07/18 08:31:58;;;;;;;5.97;2.45;;;;;;;;;;5065267;28;20093;-65
2023/07/18 08:34:25;;;;;;;5.10;2.20;;;;;;;;;;5062156;28;20400;-61
2023/07/18 08:36:52;;;;;;;5.32;2.03;;;;;;;;;;5064623;28;20044;-62
2023/07/18 08:39:18;;;;;;;11.75;2.35;;;;;;;;;;5062566;28;20089;-62
2023/07/18 08:41:46;;;;;;;4.85;2.05;;;;;;;;;;5064102;28;20048;-62
2023/07/18 08:44:14;;;;;;;5.00;2.25;;;;;;;;;;5064802;28;20508;-62
2023/07/18 08:46:46;;;;;;;6.40;2.40;;;;;;;;;;5063050;28;20416;-61
2023/07/18 08:49:14;;;;;;;4.78;1.98;;;;;;;;;;5063829;28;20024;-60
2023/07/18 08:51:43;;;;;;;4.25;2.08;;;;;;;;;;5063226;28;20060;-62
2023/07/18 08:54:10;;;;;;;8.73;2.42;;;;;;;;;;5063270;28;20044;-60
2023/07/18 08:56:40;;;;;;;5.97;2.20;;;;;;;;;;5061535;28;20040;-61
2023/07/18 08:59:07;;;;;;;4.57;2.00;;;;;;;;;;5059443;28;21161;-62
2023/07/18 09:01:33;;;;;;;4.00;1.88;;;;;;;;;;5060694;28;20044;-62
2023/07/18 09:04:00;;;;;;;4.32;1.92;;;;;;;;;;5063752;28;20032;-62
2023/07/18 09:06:26;;;;;;;4.28;1.98;;;;;;;;;;5060374;28;20040;-62
2023/07/18 09:08:55;;;;;;;5.07;2.10;;;;;;;;;;5062940;28;20044;-62
2023/07/18 09:11:22;;;;;;;6.68;2.20;;;;;;;;;;5049562;28;20074;-60
2023/07/18 09:13:48;;;;;;;4.85;1.83;;;;;;;;;;5065804;28;20036;-62
2023/07/18 09:16:17;;;;;;;4.20;1.80;;;;;;;;;;5063041;28;20040;-62
2023/07/18 09:18:54;;;;;;;6.25;1.95;;;;;;;;;;5063753;28;20051;-62
2023/07/18 09:21:21;;;;;;;4.20;1.88;;;;;;;;;;5065451;28;20036;-61
2023/07/18 09:23:48;;;;;;;4.82;1.75;;;;;;;;;;5038693;28;20093;-62
2023/07/18 09:26:16;;;;;;;5.30;2.28;;;;;;;;;;5064351;28;20113;-61
2023/07/18 09:28:42;;;;;;;4.03;2.10;;;;;;;;;;5062259;28;20377;-61
2023/07/18 09:31:19;;;;;;;4.47;2.22;;;;;;;;;;5047041;28;20051;-64
2023/07/18 09:33:46;;;;;;;5.78;2.08;;;;;;;;;;5061157;28;20606;-61
2023/07/18 09:36:24;;;;;;;4.40;2.10;;;;;;;;;;5060031;28;20043;-62
2023/07/18 09:38:51;;;;;;;7.47;2.80;;;;;;;;;;5062409;28;22383;-61
2023/07/18 09:41:19;;;;;;;4.78;2.10;;;;;;;;;;5041075;28;20044;-61
2023/07/18 09:43:46;;;;;;;6.40;1.98;;;;;;;;;;5063307;28;20108;-62
2023/07/18 09:46:13;;;;;;;4.18;1.88;;;;;;;;;;5063004;28;20180;-62
2023/07/18 09:48:40;;;;;;;4.88;2.10;;;;;;;;;;5062914;28;20454;-66
2023/07/18 09:51:09;;;;;;;3.90;1.75;;;;;;;;;;5064369;28;20187;-61
2023/07/18 09:53:37;;;;;;;3.63;1.67;;;;;;;;;;5064972;28;20483;-65
2023/07/18 09:56:04;;;;;;;3.70;1.48;;;;;;;;;;5036507;28;20164;-61
2023/07/18 09:58:31;;;;;;;3.72;1.50;;;;;;;;;;5036865;28;20040;-61
2023/07/18 10:00:58;;;;;;;6.63;1.63;;;;;;;;;;5039601;28;20754;-61
2023/07/18 10:03:25;;;;;;;5.55;1.90;;;;;;;;;;5035639;28;20051;-62
2023/07/18 10:05:52;;;;;;;4.65;1.80;;;;;;;;;;5064006;28;20063;-61
2023/07/18 10:08:19;;;;;;;3.67;1.60;;;;;;;;;;5066539;28;20086;-62
2023/07/18 10:11:09;;;;;;;5.75;1.80;;;;;;;;;;5068098;28;20041;-62
2023/07/18 10:13:41;;;;;;;4.22;1.60;;;;;;;;;;5048578;28;20044;-60
2023/07/18 10:16:14;;;;;;;3.50;1.73;;;;;;;;;;5065826;28;20642;-58
2023/07/18 10:18:44;;;;;;;4.25;1.75;;;;;;;;;;5065042;28;20044;-60
2023/07/18 10:21:12;;;;;;;5.10;1.67;;;;;;;;;;5066549;28;20044;-61
2023/07/18 10:23:43;;;;;;;4.55;2.13;;;;;;;;;;5063487;28;20059;-63
2023/07/18 10:26:09;;;;;;;6.32;1.90;;;;;;;;;;5063342;28;20041;-61
2023/07/18 10:28:43;;;;;;;4.70;1.90;;;;;;;;;;5065527;28;20045;-59
2023/07/18 10:31:10;;;;;;;4.07;1.67;;;;;;;;;;5063094;28;20039;-61
2023/07/18 10:33:41;;;;;;;5.22;1.80;;;;;;;;;;5064117;28;20036;-61
2023/07/18 10:36:23;;;;;;;3.47;1.20;;;;;;;;;;5066083;28;20043;-61
2023/07/18 10:38:51;;;;;;;3.20;1.20;;;;;;;;;;5046834;28;20149;-61
2023/07/18 10:41:18;;;;;;;3.25;1.20;;;;;;;;;;5064457;28;20276;-61
2023/07/18 10:43:48;;;;;;;5.10;1.17;;;;;;;;;;5038020;28;20587;-62
2023/07/18 10:46:14;;;;;;;5.22;1.20;;;;;;;;;;5064194;28;20037;-63
2023/07/18 10:48:52;;;;;;;3.10;1.15;;;;;;;;;;5063258;28;20028;-60
2023/07/18 10:51:19;;;;;;;3.22;1.13;;;;;;;;;;5064432;28;20028;-60
2023/07/18 10:53:52;;;;;;;4.88;1.10;;;;;;;;;;5063283;28;20051;-60
2023/07/18 10:56:18;;;;;;;;;;;;;;;;;;5065003;28;20036;-65
2023/07/18 10:58:45;;;;;;;3.03;1.17;;;;;;;;;;5063429;28;20427;-60
2023/07/18 11:01:12;;;;;;;4.03;1.33;;;;;;;;;;5065048;28;20044;-58
2023/07/18 11:03:45;;;;;;;3.60;1.30;;;;;;;;;;5046937;28;20130;-60
2023/07/18 11:06:14;;;;;;;3.70;1.10;;;;;;;;;;5052758;28;20033;-59
2023/07/18 11:08:45;;;;;;;3.72;1.17;;;;;;;;;;5047924;28;20045;-62
2023/07/18 11:11:14;;;;;;;5.82;1.20;;;;;;;;;;5067600;28;20064;-62
2023/07/18 11:13:43;;;;;;;3.33;1.30;;;;;;;;;;5067119;28;20040;-59
2023/07/18 11:16:11;;;;;;;3.42;1.40;;;;;;;;;;5048289;28;20583;-61
2023/07/18 11:18:39;;;;;;;3.10;1.33;;;;;;;;;;5038380;28;20131;-63
2023/07/18 11:21:06;;;;;;;3.67;1.20;;;;;;;;;;5039452;28;20084;-60
2023/07/18 11:23:34;;;;;;;3.88;1.52;;;;;;;;;;5065793;28;20120;-61
2023/07/18 11:26:08;;;;;;;3.80;1.20;;;;;;;;;;5064397;28;20063;-62
2023/07/18 11:28:35;;;;;;;4.20;1.58;;;;;;;;;;5037248;28;20496;-61
2023/07/18 11:31:02;;;;;;;4.32;1.50;;;;;;;;;;5062631;28;20047;-61
2023/07/18 11:33:29;;;;;;;4.25;1.40;;;;;;;;;;5036841;28;20093;-61
2023/07/18 11:35:57;;;;;;;4.05;1.60;;;;;;;;;;5046884;28;20033;-62
2023/07/18 11:38:24;;;;;;;4.13;1.70;;;;;;;;;;5066695;28;20147;-63
2023/07/18 11:40:52;;;;;;;3.92;1.80;;;;;;;;;;5037450;28;20405;-61
2023/07/18 11:43:19;;;;;;;4.15;1.80;;;;;;;;;;5065330;28;20135;-61
2023/07/18 11:45:46;;;;;;;3.75;1.63;;;;;;;;;;5063465;28;20732;-59
2023/07/18 11:48:13;;;;;;;8.55;1.90;;;;;;;;;;5063501;28;20042;-64
2023/07/18 11:50:44;;;;;;;7.53;1.90;;;;;;;;;;5065446;28;20123;-64
2023/07/18 11:53:11;;;;;;;3.97;1.67;;;;;;;;;;5063152;28;20559;-61
2023/07/18 11:55:38;;;;;;;4.70;1.88;;;;;;;;;;5065006;28;20040;-62
2023/07/18 11:58:07;;;;;;;4.18;1.80;;;;;;;;;;5044293;28;20041;-60
2023/07/18 12:00:37;;;;;;;4.85;1.85;;;;;;;;;;5062425;28;20130;-61
2023/07/18 12:03:04;;;;;;;3.75;1.73;;;;;;;;;;5062720;28;20045;-62
2023/07/18 12:05:30;;;;;;;5.18;2.08;;;;;;;;;;5063190;28;20051;-62
2023/07/18 12:07:57;;;;;;;4.80;2.05;;;;;;;;;;5061432;28;20548;-61
2023/07/18 12:10:23;;;;;;;5.15;1.92;;;;;;;;;;5060428;28;20131;-62
2023/07/18 12:12:51;;;;;;;4.50;2.15;;;;;;;;;;5063689;28;20772;-62
2023/07/18 12:15:18;;;;;;;4.22;1.75;;;;;;;;;;5061104;28;20704;-64
2023/07/18 12:17:44;;;;;;;4.50;1.92;;;;;;;;;;5060452;28;20424;-66
2023/07/18 12:20:11;;;;;;;4.57;2.08;;;;;;;;;;5044193;28;20140;-63
2023/07/18 12:22:38;;;;;;;4.65;2.17;;;;;;;;;;5061573;28;20047;-64
2023/07/18 12:25:05;;;;;;;5.45;2.30;;;;;;;;;;5064133;28;20090;-63
2023/07/18 12:27:31;;;;;;;4.35;1.98;;;;;;;;;;5033608;28;20039;-64
2023/07/18 12:29:58;;;;;;;6.10;2.45;;;;;;;;;;5063851;28;20045;-64
2023/07/18 12:32:24;;;;;;;5.97;2.35;;;;;;;;;;5061869;28;20072;-64
2023/07/18 12:34:52;;;;;;;4.28;2.25;;;;;;;;;;5061032;28;20052;-63
2023/07/18 12:37:19;;;;;;;5.18;2.40;;;;;;;;;;5034842;28;20047;-60
2023/07/18 12:39:46;;;;;;;5.70;2.50;;;;;;;;;;5034836;28;20040;-64
2023/07/18 12:42:13;;;;;;;5.07;2.33;;;;;;;;;;5063082;28;20048;-63
2023/07/18 12:44:47;;;;;;;6.35;2.50;;;;;;;;;;5063674;28;20041;-63
2023/07/18 12:47:13;;;;;;;6.38;2.70;;;;;;;;;;5061166;28;20048;-62
2023/07/18 12:49:42;;;;;;;5.60;2.63;;;;;;;;;;5060785;28;20793;-66
2023/07/18 12:52:08;;;;;;;6.88;2.60;;;;;;;;;;5064800;28;20033;-62
2023/07/18 12:54:35;;;;;;;5.75;2.78;;;;;;;;;;5058246;28;20101;-63
2023/07/18 12:57:01;;;;;;;5.82;2.47;;;;;;;;;;5047259;28;20040;-63
2023/07/18 12:59:28;;;;;;;6.82;2.50;;;;;;;;;;5063253;28;20047;-62
2023/07/18 13:01:58;;;;;;;4.75;2.40;;;;;;;;;;5062694;28;20135;-63
2023/07/18 13:04:25;;;;;;;5.68;2.65;;;;;;;;;;5060107;28;20502;-62
2023/07/18 13:06:52;;;;;;;7.50;2.70;;;;;;;;;;5037829;28;20036;-63
2023/07/18 13:09:18;;;;;;;6.18;2.67;;;;;;;;;;5063584;28;20036;-62
2023/07/18 13:11:46;;;;;;;8.20;2.88;;;;;;;;;;5061085;28;20032;-62
2023/07/18 13:14:14;;;;;;;6.60;2.75;;;;;;;;;;5061583;28;20040;-63
2023/07/18 13:16:41;;;;;;;9.70;2.78;;;;;;;;;;5060307;28;20430;-63
2023/07/18 13:19:07;;;;;;;4.78;2.30;;;;;;;;;;5060125;28;20032;-62
2023/07/18 13:21:34;;;;;;;5.38;2.75;;;;;;;;;;5060742;28;20159;-65
2023/07/18 13:24:01;;;;;;;5.68;2.80;;;;;;;;;;5057971;28;20186;-62
2023/07/18 13:26:28;;;;;;;5.25;2.60;;;;;;;;;;5060856;28;20417;-63
2023/07/18 13:28:54;;;;;;;5.43;2.78;;;;;;;;;;5061639;28;20051;-60
2023/07/18 13:31:21;;;;;;;6.53;3.13;;;;;;;;;;5056426;28;20611;-62
2023/07/18 13:33:48;;;;;;;5.03;2.63;;;;;;;;;;5061215;28;20093;-63
2023/07/18 13:36:14;;;;;;;5.72;2.50;;;;;;;;;;5061921;28;20127;-62
2023/07/18 13:38:41;;;;;;;5.97;2.75;;;;;;;;;;5061093;28;20036;-63
2023/07/18 13:41:09;;;;;;;5.15;2.72;;;;;;;;;;5046276;28;20086;-63
2023/07/18 13:43:36;;;;;;;7.78;2.90;;;;;;;;;;5036120;28;20595;-62
2023/07/18 13:46:02;;;;;;;6.30;3.00;;;;;;;;;;5058292;28;20515;-61
2023/07/18 13:48:30;;;;;;;5.57;2.95;;;;;;;;;;5058921;28;20060;-61
2023/07/18 13:51:16;;;;;;;5.25;2.50;;;;;;;;;;5042680;28;20040;-61
2023/07/18 13:53:43;;;;;;;6.47;2.90;;;;;;;;;;5041011;28;20797;-64
2023/07/18 13:56:09;;;;;;;6.50;2.60;;;;;;;;;;5021073;28;20196;-61
2023/07/18 13:58:36;;;;;;;5.78;2.88;;;;;;;;;;5043253;28;20033;-61
2023/07/18 14:01:02;;;;;;;5.63;3.10;;;;;;;;;;5042855;28;20037;-64
2023/07/18 14:03:29;;;;;;;6.55;3.03;;;;;;;;;;5025051;28;20068;-61
2023/07/18 14:05:56;;;;;;;5.63;2.95;;;;;;;;;;5042036;28;20437;-63
2023/07/18 14:08:22;;;;;;;7.45;3.20;;;;;;;;;;5028778;28;20048;-61
2023/07/18 14:10:49;;;;;;;6.60;3.05;;;;;;;;;;5023812;28;20086;-61
2023/07/18 14:13:16;;;;;;;6.50;2.88;;;;;;;;;;5044033;28;20047;-60
2023/07/18 14:15:42;;;;;;;5.82;2.78;;;;;;;;;;5040086;28;20041;-64
2023/07/18 14:18:11;;;;;;;7.53;2.70;;;;;;;;;;5043461;28;20116;-60
2023/07/18 14:20:38;;;;;;;6.53;2.97;;;;;;;;;;5032409;28;20037;-64
2023/07/18 14:23:05;;;;;;;6.55;3.03;;;;;;;;;;5043143;28;20033;-60
2023/07/18 14:25:31;;;;;;;7.93;2.90;;;;;;;;;;5043032;28;20041;-61
2023/07/18 14:27:58;;;;;;;7.30;3.47;;;;;;;;;;5046771;28;20080;-60
2023/07/18 14:30:44;;;;;;;6.90;2.80;;;;;;;;;;5030110;28;20057;-63
2023/07/18 14:33:15;;;;;;;5.53;2.78;;;;;;;;;;5032943;28;20133;-62
2023/07/18 14:35:42;;;;;;;6.90;3.45;;;;;;;;;;5031055;28;20061;-61
2023/07/18 14:38:08;;;;;;;6.75;3.22;;;;;;;;;;5033491;28;20048;-61
2023/07/18 14:40:36;;;;;;;6.40;3.55;;;;;;;;;;5030183;28;20041;-61
2023/07/18 14:43:06;;;;;;;6.75;3.58;;;;;;;;;;5016766;28;20040;-61
2023/07/18 14:45:33;;;;;;;8.50;4.03;;;;;;;;;;5028968;28;20037;-61